sensor_id;sensor_type;location;lat;lon;timestamp;P1;durP1;ratioP1;P2;durP2;ratioP2
14592;SDS011;7383;52.354;9.756;2023-06-19T00:00:06;3.40;;;3.20;;
14592;SDS011;7383;52.354;9.756;2023-06-19T00:02:46;3.55;;;3.35;;
14592;SDS011;7383;52.354;9.756;2023-06-19T00:05:25;3.38;;;3.17;;
14592;SDS011;7383;52.354;9.756;2023-06-19T00:47:48;3.20;;;3.00;;
14592;SDS011;7383;52.354;9.756;2023-06-19T00:51:07;3.38;;;3.17;;
14592;SDS011;7383;52.354;9.756;2023-06-19T01:08:56;3.22;;;3.03;;
14592;SDS011;7383;52.354;9.756;2023-06-19T01:11:50;3.47;;;3.28;;
14592;SDS011;7383;52.354;9.756;2023-06-19T01:14:43;3.30;;;3.10;;
14592;SDS011;7383;52.354;9.756;2023-06-19T01:17:30;2.95;;;2.83;;
14592;SDS011;7383;52.354;9.756;2023-06-19T01:20:08;3.15;;;2.95;;
14592;SDS011;7383;52.354;9.756;2023-06-19T01:22:37;3.33;;;3.10;;
14592;SDS011;7383;52.354;9.756;2023-06-19T01:25:14;3.47;;;3.28;;
14592;SDS011;7383;52.354;9.756;2023-06-19T01:27:55;3.13;;;2.92;;
14592;SDS011;7383;52.354;9.756;2023-06-19T01:30:37;3.30;;;3.10;;
14592;SDS011;7383;52.354;9.756;2023-06-19T01:33:18;3.53;;;3.33;;
14592;SDS011;7383;52.354;9.756;2023-06-19T01:35:53;3.80;;;3.60;;
14592;SDS011;7383;52.354;9.756;2023-06-19T02:51:41;2.72;;;2.63;;
14592;SDS011;7383;52.354;9.756;2023-06-19T02:54:07;2.92;;;2.83;;
14592;SDS011;7383;52.354;9.756;2023-06-19T02:56:34;3.30;;;3.10;;
14592;SDS011;7383;52.354;9.756;2023-06-19T02:59:00;3.38;;;3.17;;
14592;SDS011;7383;52.354;9.756;2023-06-19T03:01:30;3.20;;;3.00;;
14592;SDS011;7383;52.354;9.756;2023-06-19T03:03:57;3.05;;;2.95;;
14592;SDS011;7383;52.354;9.756;2023-06-19T03:06:23;3.13;;;2.92;;
14592;SDS011;7383;52.354;9.756;2023-06-19T03:08:52;3.28;;;3.08;;
14592;SDS011;7383;52.354;9.756;2023-06-19T03:11:19;2.90;;;2.80;;
14592;SDS011;7383;52.354;9.756;2023-06-19T03:13:47;3.50;;;3.30;;
14592;SDS011;7383;52.354;9.756;2023-06-19T03:16:14;3.35;;;3.15;;
14592;SDS011;7383;52.354;9.756;2023-06-19T03:18:41;3.38;;;3.17;;
14592;SDS011;7383;52.354;9.756;2023-06-19T03:21:09;3.28;;;3.08;;
14592;SDS011;7383;52.354;9.756;2023-06-19T03:23:36;4.57;;;3.10;;
14592;SDS011;7383;52.354;9.756;2023-06-19T03:26:04;3.20;;;3.00;;
14592;SDS011;7383;52.354;9.756;2023-06-19T03:28:31;2.72;;;2.63;;
14592;SDS011;7383;52.354;9.756;2023-06-19T03:30:58;3.03;;;2.92;;
14592;SDS011;7383;52.354;9.756;2023-06-19T03:33:25;3.30;;;3.10;;
14592;SDS011;7383;52.354;9.756;2023-06-19T03:35:52;3.30;;;3.08;;
14592;SDS011;7383;52.354;9.756;2023-06-19T03:38:18;3.40;;;3.20;;
14592;SDS011;7383;52.354;9.756;2023-06-19T03:40:45;3.15;;;2.95;;
14592;SDS011;7383;52.354;9.756;2023-06-19T03:43:13;3.17;;;3.00;;
14592;SDS011;7383;52.354;9.756;2023-06-19T03:45:40;3.25;;;3.05;;
14592;SDS011;7383;52.354;9.756;2023-06-19T03:48:07;3.10;;;3.00;;
14592;SDS011;7383;52.354;9.756;2023-06-19T03:50:33;3.60;;;3.40;;
14592;SDS011;7383;52.354;9.756;2023-06-19T03:53:00;3.50;;;3.30;;
14592;SDS011;7383;52.354;9.756;2023-06-19T03:55:26;3.33;;;3.13;;
14592;SDS011;7383;52.354;9.756;2023-06-19T03:57:53;2.85;;;2.75;;
14592;SDS011;7383;52.354;9.756;2023-06-19T04:00:21;3.20;;;3.00;;
14592;SDS011;7383;52.354;9.756;2023-06-19T04:02:47;3.38;;;3.17;;
14592;SDS011;7383;52.354;9.756;2023-06-19T04:05:14;3.78;;;3.58;;
14592;SDS011;7383;52.354;9.756;2023-06-19T04:07:41;3.67;;;3.47;;
14592;SDS011;7383;52.354;9.756;2023-06-19T04:10:08;3.50;;;3.20;;
14592;SDS011;7383;52.354;9.756;2023-06-19T04:12:36;3.35;;;3.15;;
14592;SDS011;7383;52.354;9.756;2023-06-19T04:15:03;3.13;;;3.03;;
14592;SDS011;7383;52.354;9.756;2023-06-19T04:17:31;3.60;;;3.40;;
14592;SDS011;7383;52.354;9.756;2023-06-19T04:19:57;3.25;;;3.15;;
14592;SDS011;7383;52.354;9.756;2023-06-19T04:22:24;3.42;;;3.22;;
14592;SDS011;7383;52.354;9.756;2023-06-19T04:24:50;3.30;;;3.10;;
14592;SDS011;7383;52.354;9.756;2023-06-19T04:27:17;3.63;;;3.42;;
14592;SDS011;7383;52.354;9.756;2023-06-19T04:29:43;3.80;;;3.60;;
14592;SDS011;7383;52.354;9.756;2023-06-19T04:32:10;3.40;;;3.20;;
14592;SDS011;7383;52.354;9.756;2023-06-19T04:34:38;3.67;;;3.38;;
14592;SDS011;7383;52.354;9.756;2023-06-19T04:37:05;3.58;;;3.38;;
14592;SDS011;7383;52.354;9.756;2023-06-19T04:39:31;3.80;;;3.53;;
14592;SDS011;7383;52.354;9.756;2023-06-19T04:41:58;3.63;;;3.42;;
14592;SDS011;7383;52.354;9.756;2023-06-19T04:44:25;3.60;;;3.40;;
14592;SDS011;7383;52.354;9.756;2023-06-19T04:46:51;3.65;;;3.45;;
14592;SDS011;7383;52.354;9.756;2023-06-19T04:49:25;3.60;;;3.40;;
14592;SDS011;7383;52.354;9.756;2023-06-19T04:51:56;3.92;;;3.65;;
14592;SDS011;7383;52.354;9.756;2023-06-19T04:54:23;4.32;;;4.03;;
14592;SDS011;7383;52.354;9.756;2023-06-19T04:56:50;3.80;;;3.60;;
14592;SDS011;7383;52.354;9.756;2023-06-19T04:59:18;3.63;;;3.42;;
14592;SDS011;7383;52.354;9.756;2023-06-19T05:01:44;3.72;;;3.53;;
14592;SDS011;7383;52.354;9.756;2023-06-19T05:04:11;4.07;;;3.88;;
14592;SDS011;7383;52.354;9.756;2023-06-19T05:06:37;3.78;;;3.58;;
14592;SDS011;7383;52.354;9.756;2023-06-19T05:09:05;4.05;;;3.75;;
14592;SDS011;7383;52.354;9.756;2023-06-19T05:11:31;3.67;;;3.47;;
14592;SDS011;7383;52.354;9.756;2023-06-19T05:13:58;3.58;;;3.38;;
14592;SDS011;7383;52.354;9.756;2023-06-19T05:16:24;3.75;;;3.55;;
14592;SDS011;7383;52.354;9.756;2023-06-19T05:18:51;4.28;;;3.97;;
14592;SDS011;7383;52.354;9.756;2023-06-19T05:21:17;3.88;;;3.65;;
14592;SDS011;7383;52.354;9.756;2023-06-19T05:23:44;3.60;;;3.40;;
14592;SDS011;7383;52.354;9.756;2023-06-19T05:26:13;4.20;;;3.63;;
14592;SDS011;7383;52.354;9.756;2023-06-19T05:28:40;3.92;;;3.72;;
14592;SDS011;7383;52.354;9.756;2023-06-19T05:31:06;3.97;;;3.67;;
14592;SDS011;7383;52.354;9.756;2023-06-19T05:33:33;3.85;;;3.63;;
14592;SDS011;7383;52.354;9.756;2023-06-19T05:36:01;4.03;;;3.83;;
14592;SDS011;7383;52.354;9.756;2023-06-19T05:38:28;4.00;;;3.80;;
14592;SDS011;7383;52.354;9.756;2023-06-19T05:40:55;4.07;;;3.78;;
14592;SDS011;7383;52.354;9.756;2023-06-19T05:43:23;3.65;;;3.45;;
14592;SDS011;7383;52.354;9.756;2023-06-19T05:45:50;4.10;;;3.80;;
14592;SDS011;7383;52.354;9.756;2023-06-19T05:48:17;4.03;;;3.80;;
14592;SDS011;7383;52.354;9.756;2023-06-19T05:50:44;3.90;;;3.70;;
14592;SDS011;7383;52.354;9.756;2023-06-19T05:53:10;3.90;;;3.70;;
14592;SDS011;7383;52.354;9.756;2023-06-19T05:55:38;3.88;;;3.67;;
14592;SDS011;7383;52.354;9.756;2023-06-19T05:58:04;4.32;;;4.05;;
14592;SDS011;7383;52.354;9.756;2023-06-19T06:00:32;4.20;;;3.90;;
14592;SDS011;7383;52.354;9.756;2023-06-19T06:03:00;4.07;;;3.88;;
14592;SDS011;7383;52.354;9.756;2023-06-19T06:05:27;3.75;;;3.55;;
14592;SDS011;7383;52.354;9.756;2023-06-19T06:07:54;4.35;;;4.05;;
14592;SDS011;7383;52.354;9.756;2023-06-19T06:10:21;4.25;;;4.00;;
14592;SDS011;7383;52.354;9.756;2023-06-19T06:12:50;4.13;;;3.83;;
14592;SDS011;7383;52.354;9.756;2023-06-19T06:15:17;4.20;;;3.90;;
14592;SDS011;7383;52.354;9.756;2023-06-19T06:17:45;3.95;;;3.72;;
14592;SDS011;7383;52.354;9.756;2023-06-19T06:20:11;4.35;;;4.03;;
14592;SDS011;7383;52.354;9.756;2023-06-19T06:22:38;4.40;;;4.10;;
14592;SDS011;7383;52.354;9.756;2023-06-19T06:25:07;4.30;;;4.05;;
14592;SDS011;7383;52.354;9.756;2023-06-19T06:27:35;4.22;;;3.88;;
14592;SDS011;7383;52.354;9.756;2023-06-19T06:30:02;5.45;;;4.13;;
14592;SDS011;7383;52.354;9.756;2023-06-19T07:37:18;4.78;;;4.45;;
14592;SDS011;7383;52.354;9.756;2023-06-19T07:39:45;4.75;;;4.45;;
14592;SDS011;7383;52.354;9.756;2023-06-19T07:42:12;5.15;;;4.85;;
14592;SDS011;7383;52.354;9.756;2023-06-19T07:44:43;4.88;;;4.57;;
14592;SDS011;7383;52.354;9.756;2023-06-19T07:47:10;4.68;;;4.38;;
14592;SDS011;7383;52.354;9.756;2023-06-19T07:49:38;5.50;;;5.10;;
14592;SDS011;7383;52.354;9.756;2023-06-19T07:52:05;5.60;;;5.20;;
14592;SDS011;7383;52.354;9.756;2023-06-19T07:54:35;4.88;;;4.47;;
14592;SDS011;7383;52.354;9.756;2023-06-19T07:57:02;5.38;;;4.97;;
14592;SDS011;7383;52.354;9.756;2023-06-19T07:59:29;4.88;;;4.57;;
14592;SDS011;7383;52.354;9.756;2023-06-19T08:01:58;4.68;;;4.38;;
14592;SDS011;7383;52.354;9.756;2023-06-19T08:04:24;4.63;;;4.32;;
14592;SDS011;7383;52.354;9.756;2023-06-19T08:06:51;5.00;;;4.70;;
14592;SDS011;7383;52.354;9.756;2023-06-19T08:09:17;4.85;;;4.55;;
14592;SDS011;7383;52.354;9.756;2023-06-19T08:11:45;4.53;;;4.30;;
14592;SDS011;7383;52.354;9.756;2023-06-19T08:14:13;4.75;;;4.45;;
14592;SDS011;7383;52.354;9.756;2023-06-19T08:16:39;5.00;;;4.60;;
14592;SDS011;7383;52.354;9.756;2023-06-19T08:19:06;4.88;;;4.57;;
14592;SDS011;7383;52.354;9.756;2023-06-19T08:21:32;5.50;;;5.10;;
14592;SDS011;7383;52.354;9.756;2023-06-19T08:23:59;5.25;;;4.95;;
14592;SDS011;7383;52.354;9.756;2023-06-19T08:26:25;4.95;;;4.65;;
14592;SDS011;7383;52.354;9.756;2023-06-19T08:28:53;5.30;;;4.80;;
14592;SDS011;7383;52.354;9.756;2023-06-19T08:31:20;4.90;;;4.50;;
14592;SDS011;7383;52.354;9.756;2023-06-19T08:33:52;4.85;;;4.55;;
14592;SDS011;7383;52.354;9.756;2023-06-19T08:36:18;4.65;;;4.35;;
14592;SDS011;7383;52.354;9.756;2023-06-19T08:38:45;4.72;;;4.30;;
14592;SDS011;7383;52.354;9.756;2023-06-19T08:41:14;6.68;;;5.47;;
14592;SDS011;7383;52.354;9.756;2023-06-19T08:43:40;4.95;;;4.65;;
14592;SDS011;7383;52.354;9.756;2023-06-19T08:46:11;4.68;;;4.38;;
14592;SDS011;7383;52.354;9.756;2023-06-19T08:48:38;4.40;;;4.10;;
14592;SDS011;7383;52.354;9.756;2023-06-19T08:51:05;4.70;;;4.30;;
14592;SDS011;7383;52.354;9.756;2023-06-19T08:53:35;4.72;;;4.43;;
14592;SDS011;7383;52.354;9.756;2023-06-19T09:00:02;5.40;;;5.00;;
14592;SDS011;7383;52.354;9.756;2023-06-19T09:05:26;6.03;;;5.28;;
14592;SDS011;7383;52.354;9.756;2023-06-19T09:07:56;6.50;;;5.43;;
14592;SDS011;7383;52.354;9.756;2023-06-19T09:10:23;8.65;;;5.60;;
14592;SDS011;7383;52.354;9.756;2023-06-19T09:12:57;6.93;;;5.90;;
14592;SDS011;7383;52.354;9.756;2023-06-19T09:15:26;11.45;;;6.70;;
14592;SDS011;7383;52.354;9.756;2023-06-19T09:18:03;6.57;;;5.97;;
14592;SDS011;7383;52.354;9.756;2023-06-19T09:20:30;5.32;;;4.93;;
14592;SDS011;7383;52.354;9.756;2023-06-19T09:22:57;4.93;;;4.60;;
14592;SDS011;7383;52.354;9.756;2023-06-19T09:25:24;9.05;;;5.97;;
14592;SDS011;7383;52.354;9.756;2023-06-19T09:27:52;9.10;;;6.85;;
14592;SDS011;7383;52.354;9.756;2023-06-19T09:30:18;6.15;;;4.82;;
14592;SDS011;7383;52.354;9.756;2023-06-19T09:32:44;8.88;;;6.55;;
14592;SDS011;7383;52.354;9.756;2023-06-19T09:35:12;17.55;;;8.88;;
14592;SDS011;7383;52.354;9.756;2023-06-19T09:37:39;16.77;;;8.93;;
14592;SDS011;7383;52.354;9.756;2023-06-19T09:40:07;9.52;;;6.88;;
14592;SDS011;7383;52.354;9.756;2023-06-19T09:42:36;9.07;;;6.10;;
14592;SDS011;7383;52.354;9.756;2023-06-19T09:45:04;6.07;;;5.35;;
14592;SDS011;7383;52.354;9.756;2023-06-19T09:47:35;6.47;;;5.10;;
14592;SDS011;7383;52.354;9.756;2023-06-19T09:50:06;5.25;;;4.85;;
14592;SDS011;7383;52.354;9.756;2023-06-19T09:52:34;4.68;;;4.38;;
14592;SDS011;7383;52.354;9.756;2023-06-19T09:55:02;3.90;;;3.70;;
14592;SDS011;7383;52.354;9.756;2023-06-19T09:57:30;4.28;;;3.97;;
14592;SDS011;7383;52.354;9.756;2023-06-19T09:59:58;4.40;;;4.00;;
14592;SDS011;7383;52.354;9.756;2023-06-19T10:02:33;4.63;;;4.28;;
14592;SDS011;7383;52.354;9.756;2023-06-19T10:05:01;4.47;;;4.18;;
14592;SDS011;7383;52.354;9.756;2023-06-19T10:07:32;4.00;;;3.70;;
14592;SDS011;7383;52.354;9.756;2023-06-19T10:10:04;4.30;;;4.00;;
14592;SDS011;7383;52.354;9.756;2023-06-19T10:12:35;4.32;;;4.13;;
14592;SDS011;7383;52.354;9.756;2023-06-19T10:15:12;4.00;;;3.70;;
14592;SDS011;7383;52.354;9.756;2023-06-19T10:17:42;3.90;;;3.70;;
14592;SDS011;7383;52.354;9.756;2023-06-19T10:22:58;4.05;;;3.83;;
14592;SDS011;7383;52.354;9.756;2023-06-19T10:25:31;3.72;;;3.47;;
14592;SDS011;7383;52.354;9.756;2023-06-19T10:27:59;3.40;;;3.20;;
14592;SDS011;7383;52.354;9.756;2023-06-19T10:31:45;3.58;;;3.38;;
14592;SDS011;7383;52.354;9.756;2023-06-19T10:33:55;3.42;;;3.25;;
14592;SDS011;7383;52.354;9.756;2023-06-19T10:36:39;3.67;;;3.47;;
14592;SDS011;7383;52.354;9.756;2023-06-19T10:39:06;3.65;;;3.45;;
14592;SDS011;7383;52.354;9.756;2023-06-19T10:41:42;3.78;;;3.50;;
14592;SDS011;7383;52.354;9.756;2023-06-19T10:44:09;3.35;;;3.15;;
14592;SDS011;7383;52.354;9.756;2023-06-19T10:46:37;3.40;;;3.20;;
14592;SDS011;7383;52.354;9.756;2023-06-19T10:49:05;3.45;;;3.25;;
14592;SDS011;7383;52.354;9.756;2023-06-19T10:51:35;3.72;;;3.42;;
14592;SDS011;7383;52.354;9.756;2023-06-19T10:54:02;3.45;;;3.25;;
14592;SDS011;7383;52.354;9.756;2023-06-19T10:56:29;3.22;;;3.03;;
14592;SDS011;7383;52.354;9.756;2023-06-19T10:59:01;3.50;;;3.30;;
14592;SDS011;7383;52.354;9.756;2023-06-19T11:01:33;3.58;;;3.38;;
14592;SDS011;7383;52.354;9.756;2023-06-19T11:04:01;3.40;;;3.20;;
14592;SDS011;7383;52.354;9.756;2023-06-19T11:06:28;4.05;;;3.65;;
14592;SDS011;7383;52.354;9.756;2023-06-19T11:08:55;3.72;;;3.42;;
14592;SDS011;7383;52.354;9.756;2023-06-19T11:11:21;3.45;;;3.20;;
14592;SDS011;7383;52.354;9.756;2023-06-19T11:13:48;2.97;;;2.88;;
14592;SDS011;7383;52.354;9.756;2023-06-19T11:16:15;3.25;;;3.05;;
14592;SDS011;7383;52.354;9.756;2023-06-19T11:18:42;3.47;;;3.17;;
14592;SDS011;7383;52.354;9.756;2023-06-19T11:21:08;3.15;;;2.95;;
14592;SDS011;7383;52.354;9.756;2023-06-19T11:23:35;3.28;;;3.10;;
14592;SDS011;7383;52.354;9.756;2023-06-19T11:26:02;3.40;;;3.20;;
14592;SDS011;7383;52.354;9.756;2023-06-19T11:28:29;3.63;;;3.33;;
14592;SDS011;7383;52.354;9.756;2023-06-19T11:30:57;2.72;;;2.63;;
14592;SDS011;7383;52.354;9.756;2023-06-19T11:33:26;3.20;;;3.00;;
14592;SDS011;7383;52.354;9.756;2023-06-19T11:35:53;3.20;;;3.00;;
14592;SDS011;7383;52.354;9.756;2023-06-19T11:38:21;3.00;;;2.80;;
14592;SDS011;7383;52.354;9.756;2023-06-19T11:40:51;3.10;;;2.90;;
14592;SDS011;7383;52.354;9.756;2023-06-19T11:43:24;2.95;;;2.75;;
14592;SDS011;7383;52.354;9.756;2023-06-19T11:45:51;2.80;;;2.60;;
14592;SDS011;7383;52.354;9.756;2023-06-19T11:48:21;2.40;;;2.30;;
14592;SDS011;7383;52.354;9.756;2023-06-19T11:50:50;2.58;;;2.40;;
14592;SDS011;7383;52.354;9.756;2023-06-19T11:53:18;2.40;;;2.30;;
14592;SDS011;7383;52.354;9.756;2023-06-19T11:55:44;2.25;;;2.15;;
14592;SDS011;7383;52.354;9.756;2023-06-19T11:58:11;2.20;;;2.10;;
14592;SDS011;7383;52.354;9.756;2023-06-19T12:00:37;2.25;;;2.13;;
14592;SDS011;7383;52.354;9.756;2023-06-19T12:03:04;2.17;;;1.90;;
14592;SDS011;7383;52.354;9.756;2023-06-19T12:05:31;2.40;;;2.30;;
14592;SDS011;7383;52.354;9.756;2023-06-19T12:20:54;2.50;;;2.40;;
14592;SDS011;7383;52.354;9.756;2023-06-19T12:26:18;2.70;;;2.50;;
14592;SDS011;7383;52.354;9.756;2023-06-19T12:28:45;2.67;;;2.47;;
14592;SDS011;7383;52.354;9.756;2023-06-19T12:31:25;2.85;;;2.65;;
14592;SDS011;7383;52.354;9.756;2023-06-19T12:37:36;2.78;;;2.58;;
14592;SDS011;7383;52.354;9.756;2023-06-19T12:40:17;2.90;;;2.70;;
14592;SDS011;7383;52.354;9.756;2023-06-19T12:45:54;2.60;;;2.50;;
14592;SDS011;7383;52.354;9.756;2023-06-19T12:48:46;2.55;;;2.45;;
14592;SDS011;7383;52.354;9.756;2023-06-19T12:54:34;2.50;;;2.30;;
14592;SDS011;7383;52.354;9.756;2023-06-19T12:57:05;2.72;;;2.53;;
14592;SDS011;7383;52.354;9.756;2023-06-19T13:06:20;2.53;;;2.42;;
14592;SDS011;7383;52.354;9.756;2023-06-19T13:08:52;2.85;;;2.65;;
14592;SDS011;7383;52.354;9.756;2023-06-19T13:11:20;3.08;;;2.85;;
14592;SDS011;7383;52.354;9.756;2023-06-19T13:13:49;3.08;;;2.88;;
14592;SDS011;7383;52.354;9.756;2023-06-19T13:16:22;3.63;;;3.42;;
14592;SDS011;7383;52.354;9.756;2023-06-19T13:18:50;3.30;;;3.10;;
14592;SDS011;7383;52.354;9.756;2023-06-19T13:21:17;3.60;;;3.30;;
14592;SDS011;7383;52.354;9.756;2023-06-19T13:23:46;3.15;;;3.05;;
14592;SDS011;7383;52.354;9.756;2023-06-19T13:26:14;3.10;;;2.90;;
14592;SDS011;7383;52.354;9.756;2023-06-19T13:28:40;3.10;;;3.00;;
14592;SDS011;7383;52.354;9.756;2023-06-19T13:31:08;3.17;;;2.97;;
14592;SDS011;7383;52.354;9.756;2023-06-19T13:33:37;2.97;;;2.78;;
14592;SDS011;7383;52.354;9.756;2023-06-19T13:36:17;3.47;;;3.28;;
14592;SDS011;7383;52.354;9.756;2023-06-19T13:38:46;3.38;;;3.17;;
14592;SDS011;7383;52.354;9.756;2023-06-19T13:41:13;2.80;;;2.70;;
14592;SDS011;7383;52.354;9.756;2023-06-19T13:43:40;3.22;;;3.03;;
14592;SDS011;7383;52.354;9.756;2023-06-19T13:46:06;2.95;;;2.75;;
14592;SDS011;7383;52.354;9.756;2023-06-19T13:48:35;2.65;;;2.55;;
14592;SDS011;7383;52.354;9.756;2023-06-19T13:51:04;2.90;;;2.80;;
14592;SDS011;7383;52.354;9.756;2023-06-19T13:53:32;2.60;;;2.42;;
14592;SDS011;7383;52.354;9.756;2023-06-19T13:55:59;2.30;;;2.20;;
14592;SDS011;7383;52.354;9.756;2023-06-19T13:58:26;2.35;;;2.25;;
14592;SDS011;7383;52.354;9.756;2023-06-19T14:00:53;2.30;;;2.20;;
14592;SDS011;7383;52.354;9.756;2023-06-19T14:03:19;2.50;;;2.40;;
14592;SDS011;7383;52.354;9.756;2023-06-19T14:09:02;2.60;;;2.50;;
14592;SDS011;7383;52.354;9.756;2023-06-19T14:11:34;2.70;;;2.60;;
14592;SDS011;7383;52.354;9.756;2023-06-19T14:14:16;2.47;;;2.28;;
14592;SDS011;7383;52.354;9.756;2023-06-19T14:16:49;2.33;;;2.22;;
14592;SDS011;7383;52.354;9.756;2023-06-19T14:19:24;2.42;;;2.33;;
14592;SDS011;7383;52.354;9.756;2023-06-19T14:21:54;2.83;;;2.72;;
14592;SDS011;7383;52.354;9.756;2023-06-19T14:24:27;2.90;;;2.75;;
14592;SDS011;7383;52.354;9.756;2023-06-19T14:26:53;3.80;;;3.60;;
14592;SDS011;7383;52.354;9.756;2023-06-19T14:29:23;3.40;;;3.20;;
14592;SDS011;7383;52.354;9.756;2023-06-19T14:31:59;3.15;;;2.95;;
14592;SDS011;7383;52.354;9.756;2023-06-19T14:34:28;2.97;;;2.78;;
14592;SDS011;7383;52.354;9.756;2023-06-19T14:37:01;2.55;;;2.45;;
14592;SDS011;7383;52.354;9.756;2023-06-19T14:39:35;2.92;;;2.83;;
14592;SDS011;7383;52.354;9.756;2023-06-19T14:42:02;2.70;;;2.60;;
14592;SDS011;7383;52.354;9.756;2023-06-19T14:44:56;2.70;;;2.50;;
14592;SDS011;7383;52.354;9.756;2023-06-19T14:47:23;2.45;;;2.35;;
14592;SDS011;7383;52.354;9.756;2023-06-19T14:49:52;2.40;;;2.30;;
14592;SDS011;7383;52.354;9.756;2023-06-19T14:52:22;2.60;;;2.50;;
14592;SDS011;7383;52.354;9.756;2023-06-19T14:54:54;2.67;;;2.58;;
14592;SDS011;7383;52.354;9.756;2023-06-19T14:57:55;2.60;;;2.50;;
14592;SDS011;7383;52.354;9.756;2023-06-19T15:00:53;2.95;;;2.75;;
14592;SDS011;7383;52.354;9.756;2023-06-19T15:03:20;2.60;;;2.50;;
14592;SDS011;7383;52.354;9.756;2023-06-19T15:05:46;2.00;;;2.00;;
14592;SDS011;7383;52.354;9.756;2023-06-19T15:08:22;2.10;;;2.00;;
14592;SDS011;7383;52.354;9.756;2023-06-19T15:10:53;2.05;;;1.95;;
14592;SDS011;7383;52.354;9.756;2023-06-19T15:13:19;2.08;;;1.98;;
14592;SDS011;7383;52.354;9.756;2023-06-19T15:19:15;2.05;;;1.95;;
14592;SDS011;7383;52.354;9.756;2023-06-19T15:21:53;2.10;;;2.00;;
14592;SDS011;7383;52.354;9.756;2023-06-19T15:48:32;2.40;;;2.30;;
14592;SDS011;7383;52.354;9.756;2023-06-19T15:50:58;2.35;;;2.25;;
14592;SDS011;7383;52.354;9.756;2023-06-19T15:53:25;2.08;;;1.98;;
14592;SDS011;7383;52.354;9.756;2023-06-19T15:55:51;2.30;;;2.17;;
14592;SDS011;7383;52.354;9.756;2023-06-19T15:58:18;2.30;;;2.20;;
14592;SDS011;7383;52.354;9.756;2023-06-19T16:00:44;2.25;;;2.15;;
14592;SDS011;7383;52.354;9.756;2023-06-19T16:03:13;2.10;;;2.00;;
14592;SDS011;7383;52.354;9.756;2023-06-19T16:05:41;2.33;;;2.22;;
14592;SDS011;7383;52.354;9.756;2023-06-19T16:08:07;2.38;;;2.17;;
14592;SDS011;7383;52.354;9.756;2023-06-19T16:10:34;2.28;;;2.17;;
14592;SDS011;7383;52.354;9.756;2023-06-19T16:13:00;1.95;;;1.85;;
14592;SDS011;7383;52.354;9.756;2023-06-19T16:15:27;2.65;;;2.45;;
14592;SDS011;7383;52.354;9.756;2023-06-19T16:17:56;2.08;;;1.98;;
14592;SDS011;7383;52.354;9.756;2023-06-19T16:20:23;2.00;;;1.90;;
14592;SDS011;7383;52.354;9.756;2023-06-19T16:22:50;2.30;;;2.20;;
14592;SDS011;7383;52.354;9.756;2023-06-19T16:25:17;2.50;;;2.30;;
14592;SDS011;7383;52.354;9.756;2023-06-19T16:27:43;2.50;;;2.40;;
14592;SDS011;7383;52.354;9.756;2023-06-19T16:30:10;2.40;;;2.30;;
14592;SDS011;7383;52.354;9.756;2023-06-19T16:32:37;2.25;;;2.15;;
14592;SDS011;7383;52.354;9.756;2023-06-19T16:35:04;2.00;;;2.00;;
14592;SDS011;7383;52.354;9.756;2023-06-19T16:37:31;2.40;;;2.30;;
14592;SDS011;7383;52.354;9.756;2023-06-19T16:39:59;2.30;;;2.20;;
14592;SDS011;7383;52.354;9.756;2023-06-19T16:42:26;2.53;;;2.42;;
14592;SDS011;7383;52.354;9.756;2023-06-19T16:44:52;2.33;;;2.22;;
14592;SDS011;7383;52.354;9.756;2023-06-19T16:47:20;2.30;;;2.20;;
14592;SDS011;7383;52.354;9.756;2023-06-19T16:49:47;2.60;;;2.50;;
14592;SDS011;7383;52.354;9.756;2023-06-19T16:52:13;2.40;;;2.30;;
14592;SDS011;7383;52.354;9.756;2023-06-19T16:54:40;2.70;;;2.60;;
14592;SDS011;7383;52.354;9.756;2023-06-19T16:57:08;2.47;;;2.38;;
14592;SDS011;7383;52.354;9.756;2023-06-19T16:59:35;2.38;;;2.28;;
14592;SDS011;7383;52.354;9.756;2023-06-19T17:02:03;2.47;;;2.33;;
14592;SDS011;7383;52.354;9.756;2023-06-19T17:04:30;2.30;;;2.20;;
14592;SDS011;7383;52.354;9.756;2023-06-19T17:06:57;2.30;;;2.20;;
14592;SDS011;7383;52.354;9.756;2023-06-19T17:09:24;2.20;;;2.10;;
14592;SDS011;7383;52.354;9.756;2023-06-19T17:11:50;2.50;;;2.40;;
14592;SDS011;7383;52.354;9.756;2023-06-19T17:14:20;2.42;;;2.33;;
14592;SDS011;7383;52.354;9.756;2023-06-19T17:16:53;2.35;;;2.25;;
14592;SDS011;7383;52.354;9.756;2023-06-19T17:19:25;2.47;;;2.38;;
14592;SDS011;7383;52.354;9.756;2023-06-19T17:21:52;2.60;;;2.40;;
14592;SDS011;7383;52.354;9.756;2023-06-19T17:24:25;2.40;;;2.25;;
14592;SDS011;7383;52.354;9.756;2023-06-19T17:26:52;2.30;;;2.20;;
14592;SDS011;7383;52.354;9.756;2023-06-19T17:29:23;2.53;;;2.42;;
14592;SDS011;7383;52.354;9.756;2023-06-19T17:31:50;2.20;;;2.08;;
14592;SDS011;7383;52.354;9.756;2023-06-19T17:34:17;2.78;;;2.58;;
14592;SDS011;7383;52.354;9.756;2023-06-19T17:36:44;2.58;;;2.38;;
14592;SDS011;7383;52.354;9.756;2023-06-19T17:39:11;2.40;;;2.30;;
14592;SDS011;7383;52.354;9.756;2023-06-19T17:41:37;2.60;;;2.50;;
14592;SDS011;7383;52.354;9.756;2023-06-19T17:44:04;2.13;;;2.03;;
14592;SDS011;7383;52.354;9.756;2023-06-19T17:46:33;2.58;;;2.47;;
14592;SDS011;7383;52.354;9.756;2023-06-19T17:48:59;2.42;;;2.33;;
14592;SDS011;7383;52.354;9.756;2023-06-19T17:51:26;3.30;;;2.50;;
14592;SDS011;7383;52.354;9.756;2023-06-19T17:53:52;2.92;;;2.75;;
14592;SDS011;7383;52.354;9.756;2023-06-19T17:56:19;2.90;;;2.70;;
14592;SDS011;7383;52.354;9.756;2023-06-19T17:58:45;2.95;;;2.75;;
14592;SDS011;7383;52.354;9.756;2023-06-19T18:01:12;3.13;;;2.97;;
14592;SDS011;7383;52.354;9.756;2023-06-19T18:03:40;2.83;;;2.63;;
14592;SDS011;7383;52.354;9.756;2023-06-19T18:06:06;3.20;;;3.00;;
14592;SDS011;7383;52.354;9.756;2023-06-19T18:08:35;2.50;;;2.40;;
14592;SDS011;7383;52.354;9.756;2023-06-19T18:11:04;3.15;;;2.65;;
14592;SDS011;7383;52.354;9.756;2023-06-19T18:13:31;2.63;;;2.53;;
14592;SDS011;7383;52.354;9.756;2023-06-19T18:15:57;2.75;;;2.55;;
14592;SDS011;7383;52.354;9.756;2023-06-19T18:18:26;2.88;;;2.67;;
14592;SDS011;7383;52.354;9.756;2023-06-19T18:20:54;3.70;;;3.30;;
14592;SDS011;7383;52.354;9.756;2023-06-19T18:23:20;3.60;;;3.40;;
14592;SDS011;7383;52.354;9.756;2023-06-19T18:25:48;3.10;;;2.90;;
14592;SDS011;7383;52.354;9.756;2023-06-19T18:28:16;3.00;;;2.80;;
14592;SDS011;7383;52.354;9.756;2023-06-19T18:30:42;2.83;;;2.45;;
14592;SDS011;7383;52.354;9.756;2023-06-19T18:33:10;2.60;;;2.40;;
14592;SDS011;7383;52.354;9.756;2023-06-19T18:35:36;2.53;;;2.42;;
14592;SDS011;7383;52.354;9.756;2023-06-19T18:38:05;2.47;;;2.38;;
14592;SDS011;7383;52.354;9.756;2023-06-19T18:40:31;2.50;;;2.30;;
14592;SDS011;7383;52.354;9.756;2023-06-19T18:42:57;2.38;;;2.28;;
14592;SDS011;7383;52.354;9.756;2023-06-19T18:45:24;2.53;;;2.42;;
14592;SDS011;7383;52.354;9.756;2023-06-19T18:47:50;2.65;;;2.45;;
14592;SDS011;7383;52.354;9.756;2023-06-19T18:50:17;2.38;;;2.25;;
14592;SDS011;7383;52.354;9.756;2023-06-19T18:52:43;1.90;;;1.85;;
14592;SDS011;7383;52.354;9.756;2023-06-19T18:55:11;2.33;;;2.22;;
14592;SDS011;7383;52.354;9.756;2023-06-19T18:57:38;2.00;;;1.90;;
14592;SDS011;7383;52.354;9.756;2023-06-19T19:00:05;2.35;;;2.25;;
14592;SDS011;7383;52.354;9.756;2023-06-19T19:02:32;2.13;;;2.03;;
14592;SDS011;7383;52.354;9.756;2023-06-19T19:05:00;2.42;;;2.33;;
14592;SDS011;7383;52.354;9.756;2023-06-19T19:07:27;2.40;;;2.28;;
14592;SDS011;7383;52.354;9.756;2023-06-19T19:09:53;2.53;;;2.40;;
14592;SDS011;7383;52.354;9.756;2023-06-19T19:12:21;2.60;;;2.50;;
14592;SDS011;7383;52.354;9.756;2023-06-19T19:14:48;2.10;;;1.98;;
14592;SDS011;7383;52.354;9.756;2023-06-19T19:17:16;2.40;;;2.20;;
14592;SDS011;7383;52.354;9.756;2023-06-19T19:19:42;2.40;;;2.30;;
14592;SDS011;7383;52.354;9.756;2023-06-19T19:22:09;2.38;;;2.28;;
14592;SDS011;7383;52.354;9.756;2023-06-19T19:24:35;2.40;;;2.30;;
14592;SDS011;7383;52.354;9.756;2023-06-19T19:27:02;2.38;;;2.28;;
14592;SDS011;7383;52.354;9.756;2023-06-19T19:29:30;2.63;;;2.53;;
14592;SDS011;7383;52.354;9.756;2023-06-19T19:31:57;2.90;;;2.70;;
14592;SDS011;7383;52.354;9.756;2023-06-19T19:34:23;2.63;;;2.42;;
14592;SDS011;7383;52.354;9.756;2023-06-19T19:36:50;2.97;;;2.72;;